sensor_id;sensor_type;location;lat;lon;timestamp;P1;durP1;ratioP1;P2;durP2;ratioP2
57335;SDS011;43171;50.994;18.204;2023-11-21T00:02:35;13.10;;;4.50;;
57335;SDS011;43171;50.994;18.204;2023-11-21T00:12:21;8.00;;;5.20;;
57335;SDS011;43171;50.994;18.204;2023-11-21T00:14:46;11.10;;;6.70;;
57335;SDS011;43171;50.994;18.204;2023-11-21T00:24:28;8.80;;;5.80;;
57335;SDS011;43171;50.994;18.204;2023-11-21T00:34:13;6.80;;;4.60;;
57335;SDS011;43171;50.994;18.204;2023-11-21T00:43:57;9.80;;;3.20;;
57335;SDS011;43171;50.994;18.204;2023-11-21T00:53:40;6.40;;;4.30;;
57335;SDS011;43171;50.994;18.204;2023-11-21T01:03:23;6.00;;;4.10;;
57335;SDS011;43171;50.994;18.204;2023-11-21T01:13:06;3.10;;;2.80;;
57335;SDS011;43171;50.994;18.204;2023-11-21T01:22:49;2.20;;;2.00;;
57335;SDS011;43171;50.994;18.204;2023-11-21T01:32:33;2.10;;;1.70;;
57335;SDS011;43171;50.994;18.204;2023-11-21T01:42:20;1.80;;;1.40;;
57335;SDS011;43171;50.994;18.204;2023-11-21T01:59:29;2.50;;;1.80;;
57335;SDS011;43171;50.994;18.204;2023-11-21T02:09:16;2.70;;;1.90;;
57335;SDS011;43171;50.994;18.204;2023-11-21T02:19:01;11.50;;;2.10;;
57335;SDS011;43171;50.994;18.204;2023-11-21T02:28:45;1.60;;;1.10;;
57335;SDS011;43171;50.994;18.204;2023-11-21T02:38:28;1.20;;;1.00;;
57335;SDS011;43171;50.994;18.204;2023-11-21T02:48:11;9.80;;;2.00;;
57335;SDS011;43171;50.994;18.204;2023-11-21T02:57:59;2.00;;;1.60;;
57335;SDS011;43171;50.994;18.204;2023-11-21T03:09:33;2.90;;;2.40;;
57335;SDS011;43171;50.994;18.204;2023-11-21T03:19:15;10.60;;;5.10;;
57335;SDS011;43171;50.994;18.204;2023-11-21T03:28:58;9.00;;;5.10;;
57335;SDS011;43171;50.994;18.204;2023-11-21T03:38:40;5.20;;;3.20;;
57335;SDS011;43171;50.994;18.204;2023-11-21T03:48:27;10.40;;;3.20;;
57335;SDS011;43171;50.994;18.204;2023-11-21T03:58:08;2.40;;;2.00;;
57335;SDS011;43171;50.994;18.204;2023-11-21T04:07:50;5.60;;;3.10;;
57335;SDS011;43171;50.994;18.204;2023-11-21T04:17:37;6.10;;;3.40;;
57335;SDS011;43171;50.994;18.204;2023-11-21T04:27:24;5.70;;;4.00;;
57335;SDS011;43171;50.994;18.204;2023-11-21T04:37:06;5.50;;;3.80;;
57335;SDS011;43171;50.994;18.204;2023-11-21T04:46:48;5.80;;;2.70;;
57335;SDS011;43171;50.994;18.204;2023-11-21T04:56:31;2.90;;;2.10;;
57335;SDS011;43171;50.994;18.204;2023-11-21T05:06:14;1.40;;;0.90;;
57335;SDS011;43171;50.994;18.204;2023-11-21T05:15:59;5.70;;;3.40;;
57335;SDS011;43171;50.994;18.204;2023-11-21T05:25:44;3.40;;;3.10;;
57335;SDS011;43171;50.994;18.204;2023-11-21T05:35:29;7.00;;;4.60;;
57335;SDS011;43171;50.994;18.204;2023-11-21T05:45:13;3.00;;;2.70;;
57335;SDS011;43171;50.994;18.204;2023-11-21T05:54:58;5.60;;;3.00;;
57335;SDS011;43171;50.994;18.204;2023-11-21T06:04:40;3.30;;;2.10;;
57335;SDS011;43171;50.994;18.204;2023-11-21T06:14:21;3.70;;;2.00;;
57335;SDS011;43171;50.994;18.204;2023-11-21T06:24:04;1.80;;;1.10;;
57335;SDS011;43171;50.994;18.204;2023-11-21T06:33:48;5.70;;;3.40;;
57335;SDS011;43171;50.994;18.204;2023-11-21T06:43:31;8.70;;;4.60;;
57335;SDS011;43171;50.994;18.204;2023-11-21T06:53:13;4.60;;;3.00;;
57335;SDS011;43171;50.994;18.204;2023-11-21T07:02:55;7.50;;;3.00;;
57335;SDS011;43171;50.994;18.204;2023-11-21T07:12:40;5.00;;;2.30;;
57335;SDS011;43171;50.994;18.204;2023-11-21T07:22:26;4.90;;;3.80;;
57335;SDS011;43171;50.994;18.204;2023-11-21T07:32:09;7.60;;;6.10;;
57335;SDS011;43171;50.994;18.204;2023-11-21T07:41:52;7.10;;;4.00;;
57335;SDS011;43171;50.994;18.204;2023-11-21T07:51:35;15.60;;;6.10;;
57335;SDS011;43171;50.994;18.204;2023-11-21T08:01:17;5.10;;;3.30;;
57335;SDS011;43171;50.994;18.204;2023-11-21T08:11:00;4.30;;;3.90;;
57335;SDS011;43171;50.994;18.204;2023-11-21T08:20:47;8.90;;;5.10;;
57335;SDS011;43171;50.994;18.204;2023-11-21T08:30:33;6.90;;;4.10;;
57335;SDS011;43171;50.994;18.204;2023-11-21T08:40:16;4.30;;;3.00;;
57335;SDS011;43171;50.994;18.204;2023-11-21T08:50:02;6.60;;;4.70;;
57335;SDS011;43171;50.994;18.204;2023-11-21T08:59:50;7.80;;;5.00;;
57335;SDS011;43171;50.994;18.204;2023-11-21T09:09:44;10.50;;;6.10;;
57335;SDS011;43171;50.994;18.204;2023-11-21T09:19:28;16.30;;;5.40;;
57335;SDS011;43171;50.994;18.204;2023-11-21T09:29:10;17.40;;;4.10;;
57335;SDS011;43171;50.994;18.204;2023-11-21T09:38:55;4.60;;;2.80;;
57335;SDS011;43171;50.994;18.204;2023-11-21T09:48:46;6.70;;;3.40;;
57335;SDS011;43171;50.994;18.204;2023-11-21T09:58:31;18.70;;;9.40;;
57335;SDS011;43171;50.994;18.204;2023-11-21T10:08:16;27.00;;;14.00;;
57335;SDS011;43171;50.994;18.204;2023-11-21T10:18:03;26.50;;;13.00;;
57335;SDS011;43171;50.994;18.204;2023-11-21T10:27:47;29.80;;;16.00;;
57335;SDS011;43171;50.994;18.204;2023-11-21T10:42:40;48.80;;;24.40;;
57335;SDS011;43171;50.994;18.204;2023-11-21T10:52:36;42.10;;;15.90;;
57335;SDS011;43171;50.994;18.204;2023-11-21T11:02:38;55.60;;;17.50;;
57335;SDS011;43171;50.994;18.204;2023-11-21T11:12:25;34.40;;;17.30;;
57335;SDS011;43171;50.994;18.204;2023-11-21T11:42:38;20.80;;;12.30;;
57335;SDS011;43171;50.994;18.204;2023-11-21T12:02:38;18.80;;;11.90;;
57335;SDS011;43171;50.994;18.204;2023-11-21T12:12:37;20.70;;;13.10;;
57335;SDS011;43171;50.994;18.204;2023-11-21T12:22:29;33.90;;;15.90;;
57335;SDS011;43171;50.994;18.204;2023-11-21T12:32:13;36.30;;;18.90;;
57335;SDS011;43171;50.994;18.204;2023-11-21T12:41:59;21.20;;;10.70;;
57335;SDS011;43171;50.994;18.204;2023-11-21T12:51:45;20.90;;;12.30;;
57335;SDS011;43171;50.994;18.204;2023-11-21T13:01:31;17.40;;;11.90;;
57335;SDS011;43171;50.994;18.204;2023-11-21T13:11:19;24.80;;;10.40;;
57335;SDS011;43171;50.994;18.204;2023-11-21T13:13:44;31.20;;;21.30;;
57335;SDS011;43171;50.994;18.204;2023-11-21T13:23:35;23.20;;;13.30;;
57335;SDS011;43171;50.994;18.204;2023-11-21T13:33:28;15.10;;;7.80;;
57335;SDS011;43171;50.994;18.204;2023-11-21T13:43:15;10.20;;;7.00;;
57335;SDS011;43171;50.994;18.204;2023-11-21T13:53:03;10.00;;;9.10;;
57335;SDS011;43171;50.994;18.204;2023-11-21T14:03:11;8.20;;;6.40;;
57335;SDS011;43171;50.994;18.204;2023-11-21T14:13:18;15.20;;;9.50;;
57335;SDS011;43171;50.994;18.204;2023-11-21T14:23:09;28.40;;;18.40;;
57335;SDS011;43171;50.994;18.204;2023-11-21T14:33:00;20.60;;;14.30;;
57335;SDS011;43171;50.994;18.204;2023-11-21T14:42:52;31.90;;;17.00;;
57335;SDS011;43171;50.994;18.204;2023-11-21T14:53:09;32.80;;;16.40;;
57335;SDS011;43171;50.994;18.204;2023-11-21T15:03:23;32.10;;;16.40;;
57335;SDS011;43171;50.994;18.204;2023-11-21T15:13:20;32.30;;;16.40;;
57335;SDS011;43171;50.994;18.204;2023-11-21T15:23:06;23.80;;;14.40;;
57335;SDS011;43171;50.994;18.204;2023-11-21T15:32:53;20.20;;;12.70;;
57335;SDS011;43171;50.994;18.204;2023-11-21T15:42:40;53.70;;;27.60;;
57335;SDS011;43171;50.994;18.204;2023-11-21T15:52:24;42.20;;;23.60;;
57335;SDS011;43171;50.994;18.204;2023-11-21T16:02:08;37.30;;;19.80;;
57335;SDS011;43171;50.994;18.204;2023-11-21T16:12:02;38.30;;;26.70;;
57335;SDS011;43171;50.994;18.204;2023-11-21T16:22:08;34.30;;;18.40;;
57335;SDS011;43171;50.994;18.204;2023-11-21T16:31:51;32.70;;;18.20;;
57335;SDS011;43171;50.994;18.204;2023-11-21T16:41:41;33.20;;;16.10;;
57335;SDS011;43171;50.994;18.204;2023-11-21T16:51:42;40.80;;;20.70;;
57335;SDS011;43171;50.994;18.204;2023-11-21T17:01:26;39.60;;;22.60;;
57335;SDS011;43171;50.994;18.204;2023-11-21T17:11:17;50.80;;;23.20;;
57335;SDS011;43171;50.994;18.204;2023-11-21T17:20:59;34.80;;;19.40;;
57335;SDS011;43171;50.994;18.204;2023-11-21T17:30:43;41.70;;;21.70;;
57335;SDS011;43171;50.994;18.204;2023-11-21T17:40:26;47.90;;;25.80;;
57335;SDS011;43171;50.994;18.204;2023-11-21T17:50:10;40.80;;;22.70;;
57335;SDS011;43171;50.994;18.204;2023-11-21T17:59:56;27.50;;;13.80;;
57335;SDS011;43171;50.994;18.204;2023-11-21T18:09:38;57.20;;;31.00;;
57335;SDS011;43171;50.994;18.204;2023-11-21T18:19:22;43.20;;;20.30;;
57335;SDS011;43171;50.994;18.204;2023-11-21T18:21:47;72.00;;;42.40;;
57335;SDS011;43171;50.994;18.204;2023-11-21T18:31:29;57.40;;;27.60;;
57335;SDS011;43171;50.994;18.204;2023-11-21T18:36:21;61.30;;;36.70;;
57335;SDS011;43171;50.994;18.204;2023-11-21T18:46:13;53.60;;;28.60;;
57335;SDS011;43171;50.994;18.204;2023-11-21T18:56:00;73.60;;;28.50;;
57335;SDS011;43171;50.994;18.204;2023-11-21T19:05:44;63.80;;;30.40;;
57335;SDS011;43171;50.994;18.204;2023-11-21T19:22:51;65.50;;;31.20;;
57335;SDS011;43171;50.994;18.204;2023-11-21T19:39:54;67.50;;;31.10;;
57335;SDS011;43171;50.994;18.204;2023-11-21T19:49:38;90.70;;;41.80;;
57335;SDS011;43171;50.994;18.204;2023-11-21T19:59:29;75.10;;;36.10;;
57335;SDS011;43171;50.994;18.204;2023-11-21T20:09:14;35.80;;;17.90;;
57335;SDS011;43171;50.994;18.204;2023-11-21T20:18:58;26.10;;;14.90;;
57335;SDS011;43171;50.994;18.204;2023-11-21T20:28:47;97.80;;;40.60;;
57335;SDS011;43171;50.994;18.204;2023-11-21T20:38:31;71.10;;;32.30;;
57335;SDS011;43171;50.994;18.204;2023-11-21T20:48:14;61.30;;;29.10;;
57335;SDS011;43171;50.994;18.204;2023-11-21T20:58:04;70.70;;;34.30;;
57335;SDS011;43171;50.994;18.204;2023-11-21T21:07:48;72.10;;;32.80;;
57335;SDS011;43171;50.994;18.204;2023-11-21T21:17:30;66.60;;;29.70;;
57335;SDS011;43171;50.994;18.204;2023-11-21T21:27:12;47.50;;;22.20;;
57335;SDS011;43171;50.994;18.204;2023-11-21T21:36:55;71.80;;;30.30;;
57335;SDS011;43171;50.994;18.204;2023-11-21T21:46:37;58.40;;;28.80;;
57335;SDS011;43171;50.994;18.204;2023-11-21T21:56:21;73.90;;;31.30;;
57335;SDS011;43171;50.994;18.204;2023-11-21T22:06:07;80.00;;;32.60;;
57335;SDS011;43171;50.994;18.204;2023-11-21T22:15:49;76.10;;;34.70;;
57335;SDS011;43171;50.994;18.204;2023-11-21T22:25:31;85.30;;;37.30;;
57335;SDS011;43171;50.994;18.204;2023-11-21T22:35:21;85.40;;;38.90;;
57335;SDS011;43171;50.994;18.204;2023-11-21T22:45:05;90.20;;;38.20;;
57335;SDS011;43171;50.994;18.204;2023-11-21T22:54:49;74.10;;;30.90;;
57335;SDS011;43171;50.994;18.204;2023-11-21T23:04:31;55.60;;;25.90;;
57335;SDS011;43171;50.994;18.204;2023-11-21T23:14:14;95.00;;;41.50;;
57335;SDS011;43171;50.994;18.204;2023-11-21T23:24:01;65.70;;;31.30;;
57335;SDS011;43171;50.994;18.204;2023-11-21T23:33:50;80.60;;;32.40;;
57335;SDS011;43171;50.994;18.204;2023-11-21T23:36:16;101.70;;;51.90;;
57335;SDS011;43171;50.994;18.204;2023-11-21T23:45:59;90.20;;;36.90;;
57335;SDS011;43171;50.994;18.204;2023-11-21T23:55:44;95.90;;;35.10;;
